DRRN/NIM METAR and TAF weather

Enter ICAO airport designator
Station Type Date Time Source
DRRN METAR 2022/05/24 11:00 UTC NOAA

DRRN 241100Z 19004KT 090V250 CAVOK 33/18 Q1014 NOSIG


Station Type Date Time Source
DRRN Decoded METAR 2022/05/24 11:00 UTC NOAA

Niamey-Aero, Niger (DRRN) 13-29N 002-10E 227M
May 24, 2022 - 07:00 AM EDT / 2022.05.24 1100 UTC
Wind: from the S (190 degrees) at 5 MPH (4 KT) (direction variable):0
Visibility: greater than 7 mile(s):0
Temperature: 91 F (33 C)
Dew Point: 64 F (18 C)
Relative Humidity: 41%
Pressure (altimeter): 29.94 in. Hg (1014 hPa)
ob: DRRN 241100Z 19004KT 090V250 CAVOK 33/18 Q1014 NOSIG
cycle: 11

Station Type Date Time Source
DRRN TAF 2022/05/24 12:23 UTC NOAA

TAF DRRN 241100Z 2412/2518 28008KT 8000 FEW040 PROB30
TEMPO 2415/2420 VRB30KT 2000 BLDU -TSRA FEW030 FEW040CB
BECMG 2422/2424 22015KT

Example: see airport list